sensor_id;sensor_type;location;lat;lon;timestamp;temperature;humidity
48575;DHT22;34352;51.084;3.712;2024-03-23T00:55:46;7.80;99.90
48575;DHT22;34352;51.084;3.712;2024-03-23T00:58:13;7.80;99.90
48575;DHT22;34352;51.084;3.712;2024-03-23T01:00:39;7.90;99.90
48575;DHT22;34352;51.084;3.712;2024-03-23T01:03:06;8.10;99.90
48575;DHT22;34352;51.084;3.712;2024-03-23T01:05:34;8.00;99.90
48575;DHT22;34352;51.084;3.712;2024-03-23T01:08:18;7.90;99.90
48575;DHT22;34352;51.084;3.712;2024-03-23T01:11:08;7.90;99.90
48575;DHT22;34352;51.084;3.712;2024-03-23T01:13:57;8.00;99.90
48575;DHT22;34352;51.084;3.712;2024-03-23T01:16:38;8.00;99.90
48575;DHT22;34352;51.084;3.712;2024-03-23T01:19:13;8.00;99.90
48575;DHT22;34352;51.084;3.712;2024-03-23T01:21:40;8.00;99.90
48575;DHT22;34352;51.084;3.712;2024-03-23T01:24:10;8.00;99.90
48575;DHT22;34352;51.084;3.712;2024-03-23T01:26:36;8.00;99.90
48575;DHT22;34352;51.084;3.712;2024-03-23T01:29:02;7.90;99.90
48575;DHT22;34352;51.084;3.712;2024-03-23T01:31:28;7.90;99.90
48575;DHT22;34352;51.084;3.712;2024-03-23T01:33:57;7.80;99.90
48575;DHT22;34352;51.084;3.712;2024-03-23T01:36:26;7.80;99.90
48575;DHT22;34352;51.084;3.712;2024-03-23T01:38:58;7.80;99.90
48575;DHT22;34352;51.084;3.712;2024-03-23T01:41:27;7.70;99.90
48575;DHT22;34352;51.084;3.712;2024-03-23T01:43:55;7.60;99.90
48575;DHT22;34352;51.084;3.712;2024-03-23T01:46:22;7.60;99.90
48575;DHT22;34352;51.084;3.712;2024-03-23T01:48:49;7.60;99.90
48575;DHT22;34352;51.084;3.712;2024-03-23T01:51:17;7.60;99.90
48575;DHT22;34352;51.084;3.712;2024-03-23T01:53:53;7.50;99.90
48575;DHT22;34352;51.084;3.712;2024-03-23T01:56:23;7.40;99.90
48575;DHT22;34352;51.084;3.712;2024-03-23T01:58:49;7.30;99.90
48575;DHT22;34352;51.084;3.712;2024-03-23T02:01:15;7.40;99.90
48575;DHT22;34352;51.084;3.712;2024-03-23T02:03:41;7.40;99.90
48575;DHT22;34352;51.084;3.712;2024-03-23T02:06:08;7.40;99.90
48575;DHT22;34352;51.084;3.712;2024-03-23T02:08:34;7.40;99.90
48575;DHT22;34352;51.084;3.712;2024-03-23T02:11:14;7.40;99.90
48575;DHT22;34352;51.084;3.712;2024-03-23T02:13:49;7.50;99.90
48575;DHT22;34352;51.084;3.712;2024-03-23T02:16:46;7.50;99.90
48575;DHT22;34352;51.084;3.712;2024-03-23T02:19:12;7.50;99.40
48575;DHT22;34352;51.084;3.712;2024-03-23T02:21:38;7.40;99.40
48575;DHT22;34352;51.084;3.712;2024-03-23T02:24:04;7.40;99.80
48575;DHT22;34352;51.084;3.712;2024-03-23T02:26:29;7.50;99.90
48575;DHT22;34352;51.084;3.712;2024-03-23T02:28:55;7.50;98.80
48575;DHT22;34352;51.084;3.712;2024-03-23T02:31:21;7.50;98.20
48575;DHT22;34352;51.084;3.712;2024-03-23T02:33:51;7.50;97.70
48575;DHT22;34352;51.084;3.712;2024-03-23T02:36:16;7.50;97.50
48575;DHT22;34352;51.084;3.712;2024-03-23T02:38:43;7.50;97.10
48575;DHT22;34352;51.084;3.712;2024-03-23T02:41:10;7.60;96.40
48575;DHT22;34352;51.084;3.712;2024-03-23T02:43:35;7.50;96.60
48575;DHT22;34352;51.084;3.712;2024-03-23T02:46:03;7.50;96.70
48575;DHT22;34352;51.084;3.712;2024-03-23T02:48:29;7.50;96.90
48575;DHT22;34352;51.084;3.712;2024-03-23T02:50:56;7.70;95.50
48575;DHT22;34352;51.084;3.712;2024-03-23T02:53:23;7.60;94.10
48575;DHT22;34352;51.084;3.712;2024-03-23T02:55:49;7.70;93.20
48575;DHT22;34352;51.084;3.712;2024-03-23T02:58:15;7.60;92.60
48575;DHT22;34352;51.084;3.712;2024-03-23T03:00:43;7.50;93.30
48575;DHT22;34352;51.084;3.712;2024-03-23T03:03:09;7.50;92.60
48575;DHT22;34352;51.084;3.712;2024-03-23T03:05:59;7.70;92.80
48575;DHT22;34352;51.084;3.712;2024-03-23T03:08:26;7.40;92.10
48575;DHT22;34352;51.084;3.712;2024-03-23T03:10:55;7.40;91.80
48575;DHT22;34352;51.084;3.712;2024-03-23T03:13:20;7.20;91.60
48575;DHT22;34352;51.084;3.712;2024-03-23T03:15:47;7.10;92.00
48575;DHT22;34352;51.084;3.712;2024-03-23T03:18:13;7.20;92.80
48575;DHT22;34352;51.084;3.712;2024-03-23T03:20:41;7.20;93.50
48575;DHT22;34352;51.084;3.712;2024-03-23T03:23:10;7.10;93.00
48575;DHT22;34352;51.084;3.712;2024-03-23T03:25:43;7.20;92.10
48575;DHT22;34352;51.084;3.712;2024-03-23T03:28:14;7.20;91.30
48575;DHT22;34352;51.084;3.712;2024-03-23T03:30:41;8.00;91.40
48575;DHT22;34352;51.084;3.712;2024-03-23T03:33:06;7.10;91.10
48575;DHT22;34352;51.084;3.712;2024-03-23T03:35:33;7.10;90.70
48575;DHT22;34352;51.084;3.712;2024-03-23T03:38:11;7.70;91.00
48575;DHT22;34352;51.084;3.712;2024-03-23T03:40:38;7.00;91.20
48575;DHT22;34352;51.084;3.712;2024-03-23T03:43:04;7.00;91.10
48575;DHT22;34352;51.084;3.712;2024-03-23T03:45:36;6.90;90.90
48575;DHT22;34352;51.084;3.712;2024-03-23T03:48:11;6.80;91.30
48575;DHT22;34352;51.084;3.712;2024-03-23T03:50:51;6.90;91.70
48575;DHT22;34352;51.084;3.712;2024-03-23T03:53:19;6.90;90.70
48575;DHT22;34352;51.084;3.712;2024-03-23T03:55:55;6.90;90.50
48575;DHT22;34352;51.084;3.712;2024-03-23T03:58:22;6.90;89.80
48575;DHT22;34352;51.084;3.712;2024-03-23T04:00:57;6.90;90.00
48575;DHT22;34352;51.084;3.712;2024-03-23T04:03:26;6.90;90.10
48575;DHT22;34352;51.084;3.712;2024-03-23T04:05:58;6.80;90.00
48575;DHT22;34352;51.084;3.712;2024-03-23T04:08:34;6.80;90.00
48575;DHT22;34352;51.084;3.712;2024-03-23T04:11:02;6.90;89.80
48575;DHT22;34352;51.084;3.712;2024-03-23T04:13:28;6.90;90.50
48575;DHT22;34352;51.084;3.712;2024-03-23T04:15:57;6.80;90.40
48575;DHT22;34352;51.084;3.712;2024-03-23T04:18:26;6.90;90.90
48575;DHT22;34352;51.084;3.712;2024-03-23T04:20:52;6.80;91.50
48575;DHT22;34352;51.084;3.712;2024-03-23T04:23:19;7.00;90.10
48575;DHT22;34352;51.084;3.712;2024-03-23T04:25:45;6.90;89.50
48575;DHT22;34352;51.084;3.712;2024-03-23T04:28:16;7.00;89.70
48575;DHT22;34352;51.084;3.712;2024-03-23T04:30:45;6.90;90.40
48575;DHT22;34352;51.084;3.712;2024-03-23T04:33:43;6.90;89.90
48575;DHT22;34352;51.084;3.712;2024-03-23T04:36:11;6.90;89.20
48575;DHT22;34352;51.084;3.712;2024-03-23T04:38:37;6.90;88.90
48575;DHT22;34352;51.084;3.712;2024-03-23T04:41:11;6.80;89.70
48575;DHT22;34352;51.084;3.712;2024-03-23T04:43:37;6.80;89.70
48575;DHT22;34352;51.084;3.712;2024-03-23T04:46:03;6.80;90.10
48575;DHT22;34352;51.084;3.712;2024-03-23T04:48:29;6.90;90.90
48575;DHT22;34352;51.084;3.712;2024-03-23T04:51:24;6.70;91.50
48575;DHT22;34352;51.084;3.712;2024-03-23T04:53:57;6.70;91.90
48575;DHT22;34352;51.084;3.712;2024-03-23T04:56:41;6.60;92.40
48575;DHT22;34352;51.084;3.712;2024-03-23T04:59:26;6.60;93.20
48575;DHT22;34352;51.084;3.712;2024-03-23T05:02:10;6.60;93.50
48575;DHT22;34352;51.084;3.712;2024-03-23T05:04:42;6.60;94.20
48575;DHT22;34352;51.084;3.712;2024-03-23T05:07:08;6.70;93.80
48575;DHT22;34352;51.084;3.712;2024-03-23T05:09:36;6.80;93.90
48575;DHT22;34352;51.084;3.712;2024-03-23T05:12:03;6.70;93.80
48575;DHT22;34352;51.084;3.712;2024-03-23T05:14:31;6.80;94.10
48575;DHT22;34352;51.084;3.712;2024-03-23T05:17:25;6.80;94.00
48575;DHT22;34352;51.084;3.712;2024-03-23T05:19:56;6.90;93.70
48575;DHT22;34352;51.084;3.712;2024-03-23T05:22:25;6.90;93.60
48575;DHT22;34352;51.084;3.712;2024-03-23T05:24:56;6.90;93.90
48575;DHT22;34352;51.084;3.712;2024-03-23T05:27:28;6.90;93.50
48575;DHT22;34352;51.084;3.712;2024-03-23T05:29:56;6.90;94.20
48575;DHT22;34352;51.084;3.712;2024-03-23T05:32:29;7.00;94.20
48575;DHT22;34352;51.084;3.712;2024-03-23T05:34:55;6.80;94.30
48575;DHT22;34352;51.084;3.712;2024-03-23T05:37:23;7.60;94.50
48575;DHT22;34352;51.084;3.712;2024-03-23T05:39:50;6.80;94.60
48575;DHT22;34352;51.084;3.712;2024-03-23T05:42:22;6.80;94.40
48575;DHT22;34352;51.084;3.712;2024-03-23T05:44:50;6.90;94.60
48575;DHT22;34352;51.084;3.712;2024-03-23T05:47:18;6.90;94.60
48575;DHT22;34352;51.084;3.712;2024-03-23T05:49:58;6.90;94.50
48575;DHT22;34352;51.084;3.712;2024-03-23T05:52:23;6.90;94.10
48575;DHT22;34352;51.084;3.712;2024-03-23T05:54:54;6.90;94.30
48575;DHT22;34352;51.084;3.712;2024-03-23T05:57:22;6.90;93.80
48575;DHT22;34352;51.084;3.712;2024-03-23T06:00:08;6.90;93.90
48575;DHT22;34352;51.084;3.712;2024-03-23T06:02:42;6.90;94.10
48575;DHT22;34352;51.084;3.712;2024-03-23T06:05:11;6.90;93.90
48575;DHT22;34352;51.084;3.712;2024-03-23T06:07:41;7.00;93.90
48575;DHT22;34352;51.084;3.712;2024-03-23T06:10:21;7.10;93.90
48575;DHT22;34352;51.084;3.712;2024-03-23T06:13:13;7.20;93.20
48575;DHT22;34352;51.084;3.712;2024-03-23T06:15:45;7.10;93.20
48575;DHT22;34352;51.084;3.712;2024-03-23T06:18:16;7.10;93.20
48575;DHT22;34352;51.084;3.712;2024-03-23T06:20:42;7.10;92.80
48575;DHT22;34352;51.084;3.712;2024-03-23T06:23:16;7.00;93.30
48575;DHT22;34352;51.084;3.712;2024-03-23T06:29:20;7.00;94.90
48575;DHT22;34352;51.084;3.712;2024-03-23T06:31:55;7.00;94.50
48575;DHT22;34352;51.084;3.712;2024-03-23T06:34:24;7.00;94.80
48575;DHT22;34352;51.084;3.712;2024-03-23T06:36:50;7.60;94.30
48575;DHT22;34352;51.084;3.712;2024-03-23T06:39:23;6.90;94.70
48575;DHT22;34352;51.084;3.712;2024-03-23T06:41:54;7.00;95.20
48575;DHT22;34352;51.084;3.712;2024-03-23T06:44:25;7.20;94.70
48575;DHT22;34352;51.084;3.712;2024-03-23T06:46:50;7.20;94.50
48575;DHT22;34352;51.084;3.712;2024-03-23T06:49:16;7.90;94.60
48575;DHT22;34352;51.084;3.712;2024-03-23T06:51:45;7.60;92.10
48575;DHT22;34352;51.084;3.712;2024-03-23T06:54:11;7.80;87.90
48575;DHT22;34352;51.084;3.712;2024-03-23T06:56:39;8.20;88.60
48575;DHT22;34352;51.084;3.712;2024-03-23T06:59:07;8.50;85.80
48575;DHT22;34352;51.084;3.712;2024-03-23T07:10:06;9.30;75.80
48575;DHT22;34352;51.084;3.712;2024-03-23T07:12:38;9.30;63.20
48575;DHT22;34352;51.084;3.712;2024-03-23T07:15:04;9.20;61.60
48575;DHT22;34352;51.084;3.712;2024-03-23T07:17:34;9.00;66.80
48575;DHT22;34352;51.084;3.712;2024-03-23T07:20:02;8.80;72.40
48575;DHT22;34352;51.084;3.712;2024-03-23T07:25:06;9.40;69.20
48575;DHT22;34352;51.084;3.712;2024-03-23T07:27:41;9.70;63.00
48575;DHT22;34352;51.084;3.712;2024-03-23T07:30:25;9.90;58.40
48575;DHT22;34352;51.084;3.712;2024-03-23T07:38:29;8.50;58.90
48575;DHT22;34352;51.084;3.712;2024-03-23T07:41:14;8.10;60.90
48575;DHT22;34352;51.084;3.712;2024-03-23T07:46:25;7.40;73.30
48575;DHT22;34352;51.084;3.712;2024-03-23T07:49:14;7.40;72.40
48575;DHT22;34352;51.084;3.712;2024-03-23T07:52:10;7.20;74.20
48575;DHT22;34352;51.084;3.712;2024-03-23T07:57:15;7.60;80.20
48575;DHT22;34352;51.084;3.712;2024-03-23T07:59:46;9.30;68.10
48575;DHT22;34352;51.084;3.712;2024-03-23T08:02:23;8.80;52.40
48575;DHT22;34352;51.084;3.712;2024-03-23T08:05:11;10.20;32.60
48575;DHT22;34352;51.084;3.712;2024-03-23T08:07:38;10.50;9.30
48575;DHT22;34352;51.084;3.712;2024-03-23T08:10:17;11.10;13.50
48575;DHT22;34352;51.084;3.712;2024-03-23T08:12:55;11.20;1.00
48575;DHT22;34352;51.084;3.712;2024-03-23T08:15:21;11.40;1.00
48575;DHT22;34352;51.084;3.712;2024-03-23T08:17:56;11.60;1.00
48575;DHT22;34352;51.084;3.712;2024-03-23T08:23:38;12.10;1.00
48575;DHT22;34352;51.084;3.712;2024-03-23T08:29:16;12.60;1.00
48575;DHT22;34352;51.084;3.712;2024-03-23T08:34:53;11.20;1.00
48575;DHT22;34352;51.084;3.712;2024-03-23T08:40:18;9.20;35.40
48575;DHT22;34352;51.084;3.712;2024-03-23T08:42:44;9.20;36.50
48575;DHT22;34352;51.084;3.712;2024-03-23T08:45:18;8.10;47.60
48575;DHT22;34352;51.084;3.712;2024-03-23T08:47:50;7.00;58.20
48575;DHT22;34352;51.084;3.712;2024-03-23T08:50:26;8.10;68.00
48575;DHT22;34352;51.084;3.712;2024-03-23T08:53:03;9.10;56.90
48575;DHT22;34352;51.084;3.712;2024-03-23T08:55:41;10.50;32.30
48575;DHT22;34352;51.084;3.712;2024-03-23T09:06:10;11.00;1.00
48575;DHT22;34352;51.084;3.712;2024-03-23T09:23:04;11.20;1.00
48575;DHT22;34352;51.084;3.712;2024-03-23T09:26:07;10.30;1.00
48575;DHT22;34352;51.084;3.712;2024-03-23T09:28:41;9.80;1.00
48575;DHT22;34352;51.084;3.712;2024-03-23T09:31:11;10.50;1.00
48575;DHT22;34352;51.084;3.712;2024-03-23T09:33:41;10.90;1.00
48575;DHT22;34352;51.084;3.712;2024-03-23T09:36:09;10.90;1.00
48575;DHT22;34352;51.084;3.712;2024-03-23T09:38:36;11.10;1.00
48575;DHT22;34352;51.084;3.712;2024-03-23T09:41:08;12.00;1.00
48575;DHT22;34352;51.084;3.712;2024-03-23T09:43:41;12.00;1.00
48575;DHT22;34352;51.084;3.712;2024-03-23T09:46:08;12.30;1.00
48575;DHT22;34352;51.084;3.712;2024-03-23T09:48:34;12.70;1.00
48575;DHT22;34352;51.084;3.712;2024-03-23T09:51:00;13.00;1.00
48575;DHT22;34352;51.084;3.712;2024-03-23T09:53:28;13.40;1.00
48575;DHT22;34352;51.084;3.712;2024-03-23T09:56:03;13.00;1.00
48575;DHT22;34352;51.084;3.712;2024-03-23T09:58:28;12.60;1.00
48575;DHT22;34352;51.084;3.712;2024-03-23T10:00:55;13.00;1.00
48575;DHT22;34352;51.084;3.712;2024-03-23T10:03:24;13.10;1.00
48575;DHT22;34352;51.084;3.712;2024-03-23T10:06:05;12.50;1.00
48575;DHT22;34352;51.084;3.712;2024-03-23T10:08:35;11.50;1.00
48575;DHT22;34352;51.084;3.712;2024-03-23T10:11:30;10.60;1.00
48575;DHT22;34352;51.084;3.712;2024-03-23T10:14:07;10.30;1.00
48575;DHT22;34352;51.084;3.712;2024-03-23T10:16:32;11.50;1.00
48575;DHT22;34352;51.084;3.712;2024-03-23T10:19:00;12.00;1.00
48575;DHT22;34352;51.084;3.712;2024-03-23T10:21:26;12.70;1.00
48575;DHT22;34352;51.084;3.712;2024-03-23T10:24:08;13.40;1.00
48575;DHT22;34352;51.084;3.712;2024-03-23T10:26:37;12.90;1.00
48575;DHT22;34352;51.084;3.712;2024-03-23T10:29:03;12.10;1.00
48575;DHT22;34352;51.084;3.712;2024-03-23T10:31:38;11.90;1.00
48575;DHT22;34352;51.084;3.712;2024-03-23T10:34:07;12.00;1.00
48575;DHT22;34352;51.084;3.712;2024-03-23T10:36:34;12.00;1.00
48575;DHT22;34352;51.084;3.712;2024-03-23T10:39:05;12.80;1.00
48575;DHT22;34352;51.084;3.712;2024-03-23T10:41:33;12.10;1.00
48575;DHT22;34352;51.084;3.712;2024-03-23T10:44:06;11.60;1.00
48575;DHT22;34352;51.084;3.712;2024-03-23T10:46:39;10.80;1.00
48575;DHT22;34352;51.084;3.712;2024-03-23T10:49:14;10.60;1.00
48575;DHT22;34352;51.084;3.712;2024-03-23T10:54:24;10.40;1.00
48575;DHT22;34352;51.084;3.712;2024-03-23T11:00:14;12.10;1.00
48575;DHT22;34352;51.084;3.712;2024-03-23T11:02:41;12.50;1.00
48575;DHT22;34352;51.084;3.712;2024-03-23T11:05:30;12.10;1.00
48575;DHT22;34352;51.084;3.712;2024-03-23T11:07:56;12.30;1.00
48575;DHT22;34352;51.084;3.712;2024-03-23T11:10:30;12.60;1.00
48575;DHT22;34352;51.084;3.712;2024-03-23T11:13:23;12.90;1.00
48575;DHT22;34352;51.084;3.712;2024-03-23T11:15:51;13.30;1.00
48575;DHT22;34352;51.084;3.712;2024-03-23T11:18:23;13.40;1.00
48575;DHT22;34352;51.084;3.712;2024-03-23T11:20:52;13.20;1.00
48575;DHT22;34352;51.084;3.712;2024-03-23T11:23:40;12.80;1.00
48575;DHT22;34352;51.084;3.712;2024-03-23T11:26:14;12.90;1.00
48575;DHT22;34352;51.084;3.712;2024-03-23T11:28:41;12.70;1.00
48575;DHT22;34352;51.084;3.712;2024-03-23T11:31:11;13.50;1.00
48575;DHT22;34352;51.084;3.712;2024-03-23T11:33:39;14.40;1.00
48575;DHT22;34352;51.084;3.712;2024-03-23T11:36:05;14.40;99.90
48575;DHT22;34352;51.084;3.712;2024-03-23T11:38:36;13.10;99.90
48575;DHT22;34352;51.084;3.712;2024-03-23T11:41:04;12.30;1.00
48575;DHT22;34352;51.084;3.712;2024-03-23T11:43:34;12.70;99.90
48575;DHT22;34352;51.084;3.712;2024-03-23T11:46:02;12.80;1.00
48575;DHT22;34352;51.084;3.712;2024-03-23T11:48:32;13.60;99.90
48575;DHT22;34352;51.084;3.712;2024-03-23T11:50:58;13.80;99.90
48575;DHT22;34352;51.084;3.712;2024-03-23T11:53:25;13.20;99.90
48575;DHT22;34352;51.084;3.712;2024-03-23T11:55:57;13.10;99.90
48575;DHT22;34352;51.084;3.712;2024-03-23T11:58:31;13.20;99.90
48575;DHT22;34352;51.084;3.712;2024-03-23T12:03:28;14.10;99.90
48575;DHT22;34352;51.084;3.712;2024-03-23T12:05:58;13.90;99.90
48575;DHT22;34352;51.084;3.712;2024-03-23T12:08:34;13.30;99.90
48575;DHT22;34352;51.084;3.712;2024-03-23T12:11:16;12.80;99.90
48575;DHT22;34352;51.084;3.712;2024-03-23T12:13:45;12.40;99.90
48575;DHT22;34352;51.084;3.712;2024-03-23T12:16:18;12.60;99.90
48575;DHT22;34352;51.084;3.712;2024-03-23T12:18:44;13.10;99.90
48575;DHT22;34352;51.084;3.712;2024-03-23T12:21:11;12.30;99.90
48575;DHT22;34352;51.084;3.712;2024-03-23T12:23:39;12.10;99.90
48575;DHT22;34352;51.084;3.712;2024-03-23T12:26:09;12.40;99.90
48575;DHT22;34352;51.084;3.712;2024-03-23T12:28:35;12.60;99.90
48575;DHT22;34352;51.084;3.712;2024-03-23T12:31:02;12.10;99.90
48575;DHT22;34352;51.084;3.712;2024-03-23T12:33:28;11.60;99.90
48575;DHT22;34352;51.084;3.712;2024-03-23T12:35:54;11.20;99.90
48575;DHT22;34352;51.084;3.712;2024-03-23T12:38:20;10.50;1.00
48575;DHT22;34352;51.084;3.712;2024-03-23T12:40:50;10.30;1.00
48575;DHT22;34352;51.084;3.712;2024-03-23T12:43:16;10.30;1.00
48575;DHT22;34352;51.084;3.712;2024-03-23T12:45:50;10.50;1.00
48575;DHT22;34352;51.084;3.712;2024-03-23T12:48:16;10.50;1.00
48575;DHT22;34352;51.084;3.712;2024-03-23T12:50:43;10.80;1.00
48575;DHT22;34352;51.084;3.712;2024-03-23T12:53:10;11.30;99.90
48575;DHT22;34352;51.084;3.712;2024-03-23T12:55:37;11.80;1.00
48575;DHT22;34352;51.084;3.712;2024-03-23T12:58:02;12.40;1.00
48575;DHT22;34352;51.084;3.712;2024-03-23T13:00:28;12.50;1.00
48575;DHT22;34352;51.084;3.712;2024-03-23T13:02:55;12.80;1.00
48575;DHT22;34352;51.084;3.712;2024-03-23T13:05:21;12.90;1.00
48575;DHT22;34352;51.084;3.712;2024-03-23T13:07:47;13.10;1.00
48575;DHT22;34352;51.084;3.712;2024-03-23T13:10:12;12.90;99.90
48575;DHT22;34352;51.084;3.712;2024-03-23T13:12:43;12.30;99.90
48575;DHT22;34352;51.084;3.712;2024-03-23T13:15:09;11.90;1.00
48575;DHT22;34352;51.084;3.712;2024-03-23T13:17:35;11.90;1.00
48575;DHT22;34352;51.084;3.712;2024-03-23T13:20:04;12.00;1.00
48575;DHT22;34352;51.084;3.712;2024-03-23T13:22:30;12.80;1.00
48575;DHT22;34352;51.084;3.712;2024-03-23T13:24:55;14.30;1.00
48575;DHT22;34352;51.084;3.712;2024-03-23T13:27:21;14.30;99.90
48575;DHT22;34352;51.084;3.712;2024-03-23T13:29:47;13.80;99.90
48575;DHT22;34352;51.084;3.712;2024-03-23T13:32:14;13.50;99.90
48575;DHT22;34352;51.084;3.712;2024-03-23T13:34:40;13.40;99.90
48575;DHT22;34352;51.084;3.712;2024-03-23T13:37:07;13.20;99.90
48575;DHT22;34352;51.084;3.712;2024-03-23T13:39:32;13.60;99.90
48575;DHT22;34352;51.084;3.712;2024-03-23T13:41:58;13.70;99.90
48575;DHT22;34352;51.084;3.712;2024-03-23T13:44:26;12.80;99.90
48575;DHT22;34352;51.084;3.712;2024-03-23T13:46:54;12.50;99.90
48575;DHT22;34352;51.084;3.712;2024-03-23T13:49:30;12.60;99.90
48575;DHT22;34352;51.084;3.712;2024-03-23T13:51:59;13.10;99.90
48575;DHT22;34352;51.084;3.712;2024-03-23T13:54:27;12.90;99.90
48575;DHT22;34352;51.084;3.712;2024-03-23T13:56:55;12.60;99.90
48575;DHT22;34352;51.084;3.712;2024-03-23T13:59:21;12.30;99.90
48575;DHT22;34352;51.084;3.712;2024-03-23T14:01:55;12.20;99.90
48575;DHT22;34352;51.084;3.712;2024-03-23T14:04:28;11.90;99.90
48575;DHT22;34352;51.084;3.712;2024-03-23T14:07:25;12.30;99.90
48575;DHT22;34352;51.084;3.712;2024-03-23T14:10:17;13.30;99.90
48575;DHT22;34352;51.084;3.712;2024-03-23T14:12:46;13.30;99.90
48575;DHT22;34352;51.084;3.712;2024-03-23T14:15:13;12.90;99.90
48575;DHT22;34352;51.084;3.712;2024-03-23T14:17:40;12.30;99.90
48575;DHT22;34352;51.084;3.712;2024-03-23T14:20:10;11.80;99.90
48575;DHT22;34352;51.084;3.712;2024-03-23T14:22:37;11.70;99.90
48575;DHT22;34352;51.084;3.712;2024-03-23T14:25:04;11.40;99.90
48575;DHT22;34352;51.084;3.712;2024-03-23T14:27:29;11.30;99.90
48575;DHT22;34352;51.084;3.712;2024-03-23T14:29:55;11.20;1.00
48575;DHT22;34352;51.084;3.712;2024-03-23T14:32:22;11.10;1.00
48575;DHT22;34352;51.084;3.712;2024-03-23T14:34:48;11.40;1.00
48575;DHT22;34352;51.084;3.712;2024-03-23T14:37:20;11.60;1.00
48575;DHT22;34352;51.084;3.712;2024-03-23T14:39:48;12.00;1.00
48575;DHT22;34352;51.084;3.712;2024-03-23T14:42:14;11.80;1.00
48575;DHT22;34352;51.084;3.712;2024-03-23T14:44:42;11.40;99.90
48575;DHT22;34352;51.084;3.712;2024-03-23T14:47:07;10.80;99.90
48575;DHT22;34352;51.084;3.712;2024-03-23T14:49:38;10.50;99.90
48575;DHT22;34352;51.084;3.712;2024-03-23T14:52:17;10.30;1.00
48575;DHT22;34352;51.084;3.712;2024-03-23T14:54:49;10.20;99.90
48575;DHT22;34352;51.084;3.712;2024-03-23T14:57:14;10.00;99.90
48575;DHT22;34352;51.084;3.712;2024-03-23T14:59:40;9.70;99.90
48575;DHT22;34352;51.084;3.712;2024-03-23T15:02:10;9.60;99.90
48575;DHT22;34352;51.084;3.712;2024-03-23T15:04:38;9.50;1.00
48575;DHT22;34352;51.084;3.712;2024-03-23T15:07:07;9.50;1.00
48575;DHT22;34352;51.084;3.712;2024-03-23T15:09:32;9.50;1.00
48575;DHT22;34352;51.084;3.712;2024-03-23T15:11:59;9.50;1.00
48575;DHT22;34352;51.084;3.712;2024-03-23T15:14:25;9.70;1.00
48575;DHT22;34352;51.084;3.712;2024-03-23T15:16:51;9.70;1.00
48575;DHT22;34352;51.084;3.712;2024-03-23T15:19:18;9.90;1.00
48575;DHT22;34352;51.084;3.712;2024-03-23T15:21:44;10.00;1.00
48575;DHT22;34352;51.084;3.712;2024-03-23T15:24:10;10.10;1.00
48575;DHT22;34352;51.084;3.712;2024-03-23T15:26:40;10.30;1.00
48575;DHT22;34352;51.084;3.712;2024-03-23T15:29:08;10.50;1.00
48575;DHT22;34352;51.084;3.712;2024-03-23T15:31:42;10.60;1.00
48575;DHT22;34352;51.084;3.712;2024-03-23T15:34:08;10.40;1.00
48575;DHT22;34352;51.084;3.712;2024-03-23T15:36:37;10.30;1.00
48575;DHT22;34352;51.084;3.712;2024-03-23T15:39:06;10.40;1.00
48575;DHT22;34352;51.084;3.712;2024-03-23T15:41:38;10.40;1.00
48575;DHT22;34352;51.084;3.712;2024-03-23T15:44:05;10.50;1.00
48575;DHT22;34352;51.084;3.712;2024-03-23T15:46:32;10.10;1.00
48575;DHT22;34352;51.084;3.712;2024-03-23T15:48:59;9.40;1.00
48575;DHT22;34352;51.084;3.712;2024-03-23T15:51:25;8.90;1.00
48575;DHT22;34352;51.084;3.712;2024-03-23T15:53:57;8.60;1.00
48575;DHT22;34352;51.084;3.712;2024-03-23T15:56:28;8.50;1.00
48575;DHT22;34352;51.084;3.712;2024-03-23T15:58:57;8.60;11.90
48575;DHT22;34352;51.084;3.712;2024-03-23T16:01:31;8.70;2.50
48575;DHT22;34352;51.084;3.712;2024-03-23T16:04:01;8.70;8.00
48575;DHT22;34352;51.084;3.712;2024-03-23T16:06:28;8.60;13.00
48575;DHT22;34352;51.084;3.712;2024-03-23T16:08:54;8.40;10.30
48575;DHT22;34352;51.084;3.712;2024-03-23T16:11:19;8.10;17.50
48575;DHT22;34352;51.084;3.712;2024-03-23T16:13:46;8.00;28.90
48575;DHT22;34352;51.084;3.712;2024-03-23T16:16:13;7.90;27.80
48575;DHT22;34352;51.084;3.712;2024-03-23T16:18:39;7.90;26.60
48575;DHT22;34352;51.084;3.712;2024-03-23T16:21:06;8.00;27.30
48575;DHT22;34352;51.084;3.712;2024-03-23T16:23:36;8.00;23.80
48575;DHT22;34352;51.084;3.712;2024-03-23T16:26:07;8.50;23.20
48575;DHT22;34352;51.084;3.712;2024-03-23T16:28:35;7.80;25.50
48575;DHT22;34352;51.084;3.712;2024-03-23T16:31:05;7.70;31.50
48575;DHT22;34352;51.084;3.712;2024-03-23T16:33:35;7.60;44.60
48575;DHT22;34352;51.084;3.712;2024-03-23T16:36:02;7.60;45.30
48575;DHT22;34352;51.084;3.712;2024-03-23T16:38:36;7.40;49.40
48575;DHT22;34352;51.084;3.712;2024-03-23T16:43:33;7.00;61.30
48575;DHT22;34352;51.084;3.712;2024-03-23T16:46:03;6.90;55.90
48575;DHT22;34352;51.084;3.712;2024-03-23T16:48:30;6.90;54.60
48575;DHT22;34352;51.084;3.712;2024-03-23T16:50:58;7.40;52.90
48575;DHT22;34352;51.084;3.712;2024-03-23T16:53:27;6.90;53.90
48575;DHT22;34352;51.084;3.712;2024-03-23T16:58:25;6.80;62.00
48575;DHT22;34352;51.084;3.712;2024-03-23T17:00:55;6.80;63.50
48575;DHT22;34352;51.084;3.712;2024-03-23T17:03:24;6.80;61.00
48575;DHT22;34352;51.084;3.712;2024-03-23T17:05:50;6.80;60.40
48575;DHT22;34352;51.084;3.712;2024-03-23T17:08:16;6.80;65.70
48575;DHT22;34352;51.084;3.712;2024-03-23T17:10:45;6.80;66.90
48575;DHT22;34352;51.084;3.712;2024-03-23T17:13:11;7.00;61.20
48575;DHT22;34352;51.084;3.712;2024-03-23T17:15:44;7.10;70.90
48575;DHT22;34352;51.084;3.712;2024-03-23T17:18:10;7.40;75.10
48575;DHT22;34352;51.084;3.712;2024-03-23T17:20:38;7.70;70.40
48575;DHT22;34352;51.084;3.712;2024-03-23T17:23:04;7.90;61.20
48575;DHT22;34352;51.084;3.712;2024-03-23T17:25:31;8.00;53.10
48575;DHT22;34352;51.084;3.712;2024-03-23T17:27:58;8.00;49.70
48575;DHT22;34352;51.084;3.712;2024-03-23T17:30:25;8.10;47.70
48575;DHT22;34352;51.084;3.712;2024-03-23T17:32:51;8.00;48.10
48575;DHT22;34352;51.084;3.712;2024-03-23T17:35:17;8.30;34.90
48575;DHT22;34352;51.084;3.712;2024-03-23T17:37:45;8.10;32.10
48575;DHT22;34352;51.084;3.712;2024-03-23T17:40:11;8.00;35.70
48575;DHT22;34352;51.084;3.712;2024-03-23T17:42:39;7.70;39.10
48575;DHT22;34352;51.084;3.712;2024-03-23T17:45:06;7.60;49.50
48575;DHT22;34352;51.084;3.712;2024-03-23T17:47:37;7.70;49.10
48575;DHT22;34352;51.084;3.712;2024-03-23T17:50:05;7.60;52.60
48575;DHT22;34352;51.084;3.712;2024-03-23T17:52:32;7.60;50.50
48575;DHT22;34352;51.084;3.712;2024-03-23T17:54:57;7.60;51.00
48575;DHT22;34352;51.084;3.712;2024-03-23T17:57:25;7.60;54.70
48575;DHT22;34352;51.084;3.712;2024-03-23T17:59:53;7.50;56.30
48575;DHT22;34352;51.084;3.712;2024-03-23T18:02:21;7.70;59.60
48575;DHT22;34352;51.084;3.712;2024-03-23T18:08:08;7.50;61.80
48575;DHT22;34352;51.084;3.712;2024-03-23T18:10:35;7.50;56.90
48575;DHT22;34352;51.084;3.712;2024-03-23T18:13:07;7.40;59.30
48575;DHT22;34352;51.084;3.712;2024-03-23T18:15:35;8.00;62.40